logo
Search for airport 
image banner adimage banner adimage banner ad
image banner ad

EHS033 - Marknesse

Located in , Netherlands

ICAO - , IATA -

Data provided by Airmate  

General information

Coordinates: N52°40'52" E5°55'32"
Elevation is feet MSL.
 
View others Airports in Gelderland

Operational data

Special qualification required
Current time UTC:
Current local time:
Weather at : EHLE - Lelystad/Lelystad ( 38 km )
METAR: EHLE 232025Z AUTO 29008KT 9999 FEW020 OVC031 18/14 Q1018 NOSIG
TAF: TAF EHLE 231657Z 2318/2424 32012KT 9999 SCT025 BECMG 2318/2320 SCT010 BKN015 PROB30 2320/2404 SCT020 BECMG 2400/2403 33007KT SCT025 BECMG 2418/2421 07005KT CAVOK
View NOTAMs / SUP AIP / TFR affecting this airport [VIEW]
Communications frequencies: [VIEW]

Runways:

Airport contact information

Address: Netherlands

Satellite view of EHS033